Time;durP1;ratioP1;P1;durP2;ratioP2;P2;SDS_P1;SDS_P2;PMS_P1;PMS_P2;Temp;Humidity;BMP_temperature;BMP_pressure;BME280_temperature;BME280_humidity;BME280_pressure;Samples;Min_cycle;Max_cycle;Signal;HPM_P1;HPM_P2
2023/09/21 05:48:00;;;;;;;9.80;3.60;;;;;;;;;;10628494;27;20112;-84
2023/09/21 05:53:04;;;;;;;3.67;1.90;;;;;;;;;;10628205;28;20037;-84
2023/09/21 05:58:06;;;;;;;4.70;1.88;;;;;;;;;;10628566;28;20104;-86
2023/09/21 06:03:07;;;;;;;3.30;1.80;;;;;;;;;;10633777;28;20023;-84
2023/09/21 06:08:08;;;;;;;3.80;1.90;;;;;;;;;;10633807;28;20028;-86
2023/09/21 06:13:09;;;;;;;2.92;1.98;;;;;;;;;;10630806;28;20168;-87
2023/09/21 06:18:10;;;;;;;4.43;1.95;;;;;;;;;;10631074;28;20118;-86
2023/09/21 06:23:11;;;;;;;3.13;1.90;;;;;;;;;;10631427;28;20043;-87
2023/09/21 06:28:12;;;;;;;3.38;2.00;;;;;;;;;;10629423;28;20027;-87
2023/09/21 06:33:14;;;;;;;3.55;2.08;;;;;;;;;;10635869;28;20027;-85
2023/09/21 06:38:15;;;;;;;3.53;1.77;;;;;;;;;;10633195;28;20019;-85
2023/09/21 06:43:20;;;;;;;3.00;1.92;;;;;;;;;;10632166;28;21018;-86
2023/09/21 06:48:21;;;;;;;13.18;11.05;;;;;;;;;;10635405;27;20026;-85
2023/09/21 06:53:23;;;;;;;4.00;2.95;;;;;;;;;;10632742;28;20069;-86
2023/09/21 06:58:26;;;;;;;3.63;1.90;;;;;;;;;;10609058;28;20027;-86
2023/09/21 07:03:32;;;;;;;3.08;1.85;;;;;;;;;;10601097;28;20031;-85
2023/09/21 07:08:34;;;;;;;3.42;1.95;;;;;;;;;;10617237;28;20034;-83
2023/09/21 07:13:35;;;;;;;2.70;1.77;;;;;;;;;;10606066;28;20069;-85
2023/09/21 07:18:37;;;;;;;3.03;1.70;;;;;;;;;;10600593;28;20023;-84
2023/09/21 07:23:38;;;;;;;4.63;2.30;;;;;;;;;;10594449;28;20034;-84
2023/09/21 07:28:39;;;;;;;3.10;1.88;;;;;;;;;;10592267;28;20035;-84
2023/09/21 07:33:40;;;;;;;2.70;1.70;;;;;;;;;;10594818;28;20019;-85
2023/09/21 07:38:41;;;;;;;2.97;1.85;;;;;;;;;;10601500;28;20039;-85
2023/09/21 07:43:42;;;;;;;2.42;1.90;;;;;;;;;;10595962;28;20660;-85
2023/09/21 07:48:43;;;;;;;3.47;2.22;;;;;;;;;;10591337;28;20122;-84
2023/09/21 07:53:44;;;;;;;4.90;2.35;;;;;;;;;;10591459;28;20026;-85
2023/09/21 07:58:45;;;;;;;4.35;2.00;;;;;;;;;;10590981;28;20020;-84
2023/09/21 08:03:49;;;;;;;4.25;2.10;;;;;;;;;;10602497;28;20038;-84
2023/09/21 08:08:52;;;;;;;3.92;1.90;;;;;;;;;;10604790;28;20051;-84
2023/09/21 08:13:53;;;;;;;2.58;2.05;;;;;;;;;;10593885;28;20015;-83
2023/09/21 08:18:54;;;;;;;5.35;2.30;;;;;;;;;;10604104;28;20062;-83
2023/09/21 08:23:55;;;;;;;5.30;2.15;;;;;;;;;;10609993;28;20051;-84
2023/09/21 08:28:58;;;;;;;2.78;1.90;;;;;;;;;;10598958;28;20059;-84
2023/09/21 08:34:00;;;;;;;3.75;1.95;;;;;;;;;;10598232;28;20093;-85
2023/09/21 08:39:02;;;;;;;5.75;3.30;;;;;;;;;;10597634;28;20386;-83
2023/09/21 08:44:04;;;;;;;3.75;2.55;;;;;;;;;;10597419;28;20398;-85
2023/09/21 08:49:25;;;;;;;3.22;2.40;;;;;;;;;;10599419;28;20077;-85
2023/09/21 08:54:27;;;;;;;3.65;2.20;;;;;;;;;;10599796;28;20027;-84
2023/09/21 08:59:29;;;;;;;5.75;2.30;;;;;;;;;;10600125;28;20026;-85
2023/09/21 09:04:30;;;;;;;4.50;2.10;;;;;;;;;;10600566;28;20107;-84
2023/09/21 09:09:31;;;;;;;2.78;1.85;;;;;;;;;;10609676;28;20034;-84
2023/09/21 09:14:33;;;;;;;3.75;2.00;;;;;;;;;;10623157;28;20019;-84
2023/09/21 09:19:34;;;;;;;2.70;2.00;;;;;;;;;;10594563;28;20054;-84
2023/09/21 09:24:35;;;;;;;4.30;1.98;;;;;;;;;;10599677;28;20031;-86
2023/09/21 09:29:47;;;;;;;4.15;1.83;;;;;;;;;;10595580;28;20027;-85
2023/09/21 09:34:48;;;;;;;4.05;1.90;;;;;;;;;;10606220;28;20063;-84
2023/09/21 09:39:49;;;;;;;4.75;2.05;;;;;;;;;;10625328;28;20034;-84
2023/09/21 09:44:50;;;;;;;3.70;2.65;;;;;;;;;;10599707;28;20130;-85
2023/09/21 09:49:53;;;;;;;3.75;2.22;;;;;;;;;;10630877;28;20075;-82
2023/09/21 09:54:56;;;;;;;4.00;2.25;;;;;;;;;;10589704;28;20055;-85
2023/09/21 09:59:58;;;;;;;4.00;2.00;;;;;;;;;;10586265;28;20024;-84
2023/09/21 10:04:59;;;;;;;4.18;2.78;;;;;;;;;;10599539;28;20031;-84
2023/09/21 10:10:03;;;;;;;4.05;2.15;;;;;;;;;;10587091;28;20034;-85
2023/09/21 10:15:06;;;;;;;3.38;1.83;;;;;;;;;;10603044;28;20050;-84
2023/09/21 10:20:24;;;;;;;3.25;1.80;;;;;;;;;;10604303;28;20026;-84
2023/09/21 10:25:38;;;;;;;2.08;1.52;;;;;;;;;;10590397;28;20023;-85
2023/09/21 10:30:41;;;;;;;3.55;1.75;;;;;;;;;;10595596;28;20023;-85
2023/09/21 10:35:45;;;;;;;3.10;1.80;;;;;;;;;;10603606;28;20052;-84
2023/09/21 10:40:47;;;;;;;3.50;2.50;;;;;;;;;;10603768;28;20053;-88
2023/09/21 10:45:58;;;;;;;4.45;3.00;;;;;;;;;;10602809;28;20039;-85
2023/09/21 10:51:00;;;;;;;5.22;1.98;;;;;;;;;;10602908;28;20031;-84
2023/09/21 10:56:02;;;;;;;3.35;1.88;;;;;;;;;;10606683;28;20053;-84
2023/09/21 11:01:06;;;;;;;3.38;2.10;;;;;;;;;;10611540;28;20019;-84
2023/09/21 11:06:07;;;;;;;4.00;2.60;;;;;;;;;;10604987;28;20447;-84
2023/09/21 11:11:12;;;;;;;3.33;1.90;;;;;;;;;;10601867;28;20020;-84
2023/09/21 11:16:14;;;;;;;4.03;2.25;;;;;;;;;;10599013;28;20114;-83
2023/09/21 11:21:19;;;;;;;3.65;2.20;;;;;;;;;;10596374;28;20020;-84
2023/09/21 11:26:22;;;;;;;4.40;1.90;;;;;;;;;;10596595;28;20023;-83
2023/09/21 11:31:23;;;;;;;4.75;2.15;;;;;;;;;;10597705;28;20488;-83
2023/09/21 11:36:24;;;;;;;4.03;2.10;;;;;;;;;;10598801;28;20031;-83
2023/09/21 11:41:25;;;;;;;2.45;1.90;;;;;;;;;;10601224;28;20063;-84
2023/09/21 11:46:28;;;;;;;3.78;2.40;;;;;;;;;;10596526;28;20139;-85
2023/09/21 11:51:29;;;;;;;3.00;1.92;;;;;;;;;;10597824;28;20087;-85
2023/09/21 11:56:31;;;;;;;3.17;2.00;;;;;;;;;;10606801;28;20464;-84
2023/09/21 12:01:34;;;;;;;2.55;1.80;;;;;;;;;;10498010;22;20508;-82
2023/09/21 12:06:35;;;;;;;3.17;2.13;;;;;;;;;;10458221;28;20029;-82
2023/09/21 12:11:38;;;;;;;3.47;2.17;;;;;;;;;;10461324;28;20026;-83
2023/09/21 12:16:40;;;;;;;2.67;1.70;;;;;;;;;;10462238;28;20025;-84
2023/09/21 12:21:41;;;;;;;3.53;1.65;;;;;;;;;;10461926;28;20114;-84
2023/09/21 12:26:42;;;;;;;3.63;1.98;;;;;;;;;;10455935;28;20045;-84
2023/09/21 12:31:43;;;;;;;3.35;2.15;;;;;;;;;;10457401;28;20107;-85
2023/09/21 12:36:48;;;;;;;3.88;1.98;;;;;;;;;;10459329;28;20052;-85
2023/09/21 12:41:52;;;;;;;4.03;2.15;;;;;;;;;;10466447;28;20112;-85
2023/09/21 12:46:54;;;;;;;2.63;1.85;;;;;;;;;;10444648;28;20037;-84
2023/09/21 12:51:56;;;;;;;4.47;2.20;;;;;;;;;;10470826;28;20017;-84
2023/09/21 12:56:57;;;;;;;3.60;1.90;;;;;;;;;;10455474;28;20041;-84
2023/09/21 13:01:58;;;;;;;4.53;2.20;;;;;;;;;;10454875;28;20092;-84
2023/09/21 13:06:59;;;;;;;4.80;2.08;;;;;;;;;;10450705;28;20176;-84
2023/09/21 13:12:01;;;;;;;3.85;2.00;;;;;;;;;;10468534;28;20064;-85
2023/09/21 13:17:04;;;;;;;3.40;2.00;;;;;;;;;;10451757;28;20075;-83
2023/09/21 13:22:06;;;;;;;3.40;1.90;;;;;;;;;;10450943;28;20036;-84
2023/09/21 13:27:07;;;;;;;5.93;2.50;;;;;;;;;;10451155;28;20119;-84
2023/09/21 13:32:08;;;;;;;3.38;2.10;;;;;;;;;;10469855;28;20021;-84
2023/09/21 13:37:10;;;;;;;4.18;2.38;;;;;;;;;;10448881;28;20058;-84
2023/09/21 13:42:11;;;;;;;3.95;2.50;;;;;;;;;;10468581;28;20025;-84
2023/09/21 13:47:13;;;;;;;3.20;2.47;;;;;;;;;;10467135;28;20033;-84
2023/09/21 13:52:17;;;;;;;3.42;2.10;;;;;;;;;;10461935;28;20025;-83
2023/09/21 13:57:18;;;;;;;3.70;2.33;;;;;;;;;;10426030;28;20041;-84
2023/09/21 14:02:19;;;;;;;4.20;2.25;;;;;;;;;;10444223;28;20076;-83
2023/09/21 14:07:21;;;;;;;3.25;2.22;;;;;;;;;;10438735;28;20040;-84
2023/09/21 14:12:22;;;;;;;4.68;2.28;;;;;;;;;;10457950;28;20029;-84
2023/09/21 14:17:23;;;;;;;4.40;2.22;;;;;;;;;;10457810;28;20033;-84
2023/09/21 14:22:24;;;;;;;3.45;2.33;;;;;;;;;;10456450;28;20087;-84
2023/09/21 14:27:25;;;;;;;3.70;2.33;;;;;;;;;;10458345;28;20056;-83
2023/09/21 14:32:26;;;;;;;4.22;2.40;;;;;;;;;;10459469;28;20036;-84
2023/09/21 14:37:27;;;;;;;3.58;2.22;;;;;;;;;;10455598;28;20025;-85
2023/09/21 14:42:29;;;;;;;3.10;2.40;;;;;;;;;;10456505;28;20032;-86
2023/09/21 14:47:30;;;;;;;3.33;2.30;;;;;;;;;;10459003;28;20027;-85
2023/09/21 14:52:35;;;;;;;4.10;2.38;;;;;;;;;;10455628;28;20031;-86
2023/09/21 14:57:54;;;;;;;5.40;2.40;;;;;;;;;;10471341;28;20032;-85
2023/09/21 15:02:55;;;;;;;4.05;2.60;;;;;;;;;;10451680;28;20024;-85
2023/09/21 15:07:57;;;;;;;4.22;2.50;;;;;;;;;;10453497;28;20017;-84
2023/09/21 15:12:58;;;;;;;4.72;2.78;;;;;;;;;;10451760;28;20025;-83
2023/09/21 15:17:59;;;;;;;4.55;3.20;;;;;;;;;;10451669;28;20477;-84
2023/09/21 15:23:00;;;;;;;7.43;3.33;;;;;;;;;;10452483;28;20032;-84
2023/09/21 15:28:01;;;;;;;6.70;2.30;;;;;;;;;;10471142;28;20025;-85
2023/09/21 15:33:02;;;;;;;6.55;3.00;;;;;;;;;;10473424;28;20040;-82
2023/09/21 15:38:03;;;;;;;3.58;2.30;;;;;;;;;;10490208;28;20033;-78
2023/09/21 15:43:04;;;;;;;4.15;2.10;;;;;;;;;;10505979;28;20025;-84
2023/09/21 15:48:05;;;;;;;3.70;1.90;;;;;;;;;;10456414;28;20021;-84
2023/09/21 15:53:06;;;;;;;3.13;1.70;;;;;;;;;;10455858;28;20124;-83
2023/09/21 15:58:07;;;;;;;3.55;1.80;;;;;;;;;;10455961;28;20190;-84
2023/09/21 16:03:08;;;;;;;3.03;1.90;;;;;;;;;;10454672;28;20106;-84
2023/09/21 16:08:09;;;;;;;6.03;1.98;;;;;;;;;;10453210;28;20506;-84
2023/09/21 16:13:10;;;;;;;3.58;1.88;;;;;;;;;;10452763;28;20063;-84
2023/09/21 16:18:12;;;;;;;2.53;1.33;;;;;;;;;;10452212;28;20163;-82
2023/09/21 16:23:13;;;;;;;2.53;1.45;;;;;;;;;;10453758;28;20125;-82
2023/09/21 16:28:14;;;;;;;4.93;2.78;;;;;;;;;;10447043;28;20410;-85
2023/09/21 16:33:22;;;;;;;4.47;2.78;;;;;;;;;;10471651;28;20021;-85
2023/09/21 16:38:23;;;;;;;3.15;2.00;;;;;;;;;;10453143;28;20032;-84
2023/09/21 16:43:25;;;;;;;3.28;1.92;;;;;;;;;;10453020;28;20023;-85
2023/09/21 16:48:26;;;;;;;3.70;2.47;;;;;;;;;;10452662;28;20021;-84
2023/09/21 16:53:27;;;;;;;9.13;7.93;;;;;;;;;;10452032;28;20075;-85
2023/09/21 16:58:28;;;;;;;3.88;2.35;;;;;;;;;;10469831;28;20120;-85
2023/09/21 17:03:29;;;;;;;3.85;2.13;;;;;;;;;;10450945;28;20162;-85
2023/09/21 17:08:34;;;;;;;3.63;2.25;;;;;;;;;;10450958;28;20024;-85
2023/09/21 17:13:36;;;;;;;5.63;4.28;;;;;;;;;;10452231;28;20025;-85
2023/09/21 17:18:37;;;;;;;3.95;2.10;;;;;;;;;;10452326;28;20028;-85
2023/09/21 17:23:44;;;;;;;4.93;2.58;;;;;;;;;;10464971;28;20051;-85
2023/09/21 17:28:46;;;;;;;4.25;2.78;;;;;;;;;;10468804;28;20365;-85
2023/09/21 17:33:53;;;;;;;3.55;2.20;;;;;;;;;;10466465;28;20053;-85
2023/09/21 17:39:19;;;;;;;3.70;2.33;;;;;;;;;;10432908;28;20068;-85
2023/09/21 17:44:22;;;;;;;3.75;2.22;;;;;;;;;;10469227;28;20452;-85
2023/09/21 17:49:23;;;;;;;3.75;2.50;;;;;;;;;;10448492;28;20128;-85
2023/09/21 17:54:25;;;;;;;3.65;1.98;;;;;;;;;;10459042;28;20575;-88
2023/09/21 17:59:26;;;;;;;3.45;2.42;;;;;;;;;;10443495;28;20064;-88
2023/09/21 18:04:27;;;;;;;3.20;2.03;;;;;;;;;;10441847;28;20029;-88
2023/09/21 18:09:28;;;;;;;3.83;2.00;;;;;;;;;;10450066;28;20096;-83
2023/09/21 18:14:30;;;;;;;3.53;2.13;;;;;;;;;;10505599;28;20065;-87
2023/09/21 18:19:32;;;;;;;3.00;2.20;;;;;;;;;;10487836;28;20040;-87
2023/09/21 18:24:34;;;;;;;2.85;2.00;;;;;;;;;;10469887;28;20377;-87
2023/09/21 18:29:35;;;;;;;5.15;2.15;;;;;;;;;;10441490;28;20017;-87
2023/09/21 18:34:36;;;;;;;3.45;2.00;;;;;;;;;;10439402;28;20041;-88
2023/09/21 18:39:37;;;;;;;3.10;2.10;;;;;;;;;;10443970;28;20024;-87
2023/09/21 18:44:38;;;;;;;3.55;2.30;;;;;;;;;;10488879;28;20017;-86
2023/09/21 18:49:40;;;;;;;11.43;4.75;;;;;;;;;;10471294;28;20025;-87
2023/09/21 18:54:42;;;;;;;10.75;4.07;;;;;;;;;;10447904;28;20041;-89
2023/09/21 18:59:45;;;;;;;27.33;10.25;;;;;;;;;;10451157;28;20041;-89
2023/09/21 19:04:47;;;;;;;19.80;7.47;;;;;;;;;;10496222;28;20014;-85
2023/09/21 19:09:48;;;;;;;23.80;9.05;;;;;;;;;;10470042;28;20047;-88
